createdAt,value
2023-05-21T00:00:24.434Z,94503.81
2023-05-21T00:02:50.979Z,94502.22
2023-05-21T00:05:17.433Z,94501.25
2023-05-21T00:07:43.888Z,94505.19
2023-05-21T00:10:10.350Z,94491.63
2023-05-21T00:12:36.770Z,94489.41
2023-05-21T00:15:03.244Z,94492.06
2023-05-21T00:17:29.720Z,94490.25
2023-05-21T00:19:56.213Z,94496.69
2023-05-21T00:22:22.671Z,94489.00
2023-05-21T00:24:49.166Z,94496.38
2023-05-21T00:27:15.624Z,94495.19
2023-05-21T00:29:44.151Z,94492.53
2023-05-21T00:32:10.923Z,94488.03
2023-05-21T00:34:37.459Z,94490.59
2023-05-21T00:37:03.925Z,94484.00
2023-05-21T00:39:30.350Z,94493.06
2023-05-21T00:41:56.799Z,94482.38
2023-05-21T00:44:23.291Z,94481.22
2023-05-21T00:46:49.763Z,94482.81
2023-05-21T00:49:16.203Z,94475.03
2023-05-21T00:51:42.660Z,94470.13
2023-05-21T00:54:09.111Z,94467.78
2023-05-21T00:56:35.541Z,94470.56
2023-05-21T00:59:01.947Z,94480.69
2023-05-21T01:01:28.501Z,94480.47
2023-05-21T01:03:54.964Z,94478.56
2023-05-21T01:06:21.443Z,94481.00
2023-05-21T01:08:47.858Z,94471.41
2023-05-21T01:11:14.358Z,94475.56
2023-05-21T01:13:40.822Z,94468.84
2023-05-21T01:16:07.259Z,94466.41
2023-05-21T01:18:33.733Z,94469.16
2023-05-21T01:21:00.162Z,94467.34
2023-05-21T01:23:26.640Z,94475.25
2023-05-21T01:25:53.035Z,94473.00
2023-05-21T01:28:19.465Z,94479.19
2023-05-21T01:30:46.065Z,94478.34
2023-05-21T01:33:13.196Z,94477.47
2023-05-21T01:35:40.233Z,94484.31
2023-05-21T01:38:06.666Z,94480.91
2023-05-21T01:40:33.084Z,94475.34
2023-05-21T01:42:59.733Z,94480.78
2023-05-21T01:45:26.174Z,94486.00
2023-05-21T01:47:52.671Z,94480.13
2023-05-21T01:50:19.165Z,94481.72
2023-05-21T01:52:45.593Z,94472.28
2023-05-21T01:55:12.026Z,94478.38
2023-05-21T01:57:38.537Z,94477.94
2023-05-21T02:00:04.955Z,94480.88
2023-05-21T02:02:31.472Z,94475.47
2023-05-21T02:04:57.956Z,94473.13
2023-05-21T02:07:24.385Z,94478.53
2023-05-21T02:09:50.846Z,94478.97
2023-05-21T02:12:17.272Z,94478.44
2023-05-21T02:14:43.708Z,94475.69
2023-05-21T02:17:10.187Z,94477.19
2023-05-21T02:19:36.680Z,94480.16
2023-05-21T02:22:03.187Z,94482.28
2023-05-21T02:24:29.660Z,94486.13
2023-05-21T02:26:56.136Z,94484.44
2023-05-21T02:29:22.562Z,94481.84
2023-05-21T02:31:49.006Z,94477.88
2023-05-21T02:34:15.688Z,94478.50
2023-05-21T02:36:42.111Z,94478.06
2023-05-21T02:39:08.643Z,94475.72
2023-05-21T02:41:35.073Z,94470.94
2023-05-21T02:44:01.520Z,94469.44
2023-05-21T02:46:28.020Z,94472.75
2023-05-21T02:48:54.548Z,94469.75
2023-05-21T02:51:21.025Z,94466.44
2023-05-21T02:53:47.513Z,94466.88
2023-05-21T02:56:13.956Z,94472.59
2023-05-21T02:58:40.390Z,94471.78
2023-05-21T03:01:06.857Z,94473.16
2023-05-21T03:03:33.357Z,94472.41
2023-05-21T03:05:59.914Z,94473.16
2023-05-21T03:08:26.353Z,94468.59
2023-05-21T03:10:52.783Z,94463.25
2023-05-21T03:13:19.281Z,94467.00
2023-05-21T03:15:45.736Z,94465.41
2023-05-21T03:18:12.243Z,94466.06
2023-05-21T03:20:38.690Z,94465.22
2023-05-21T03:23:05.148Z,94457.66
2023-05-21T03:25:31.649Z,94459.97
2023-05-21T03:27:58.149Z,94454.34
2023-05-21T03:30:24.626Z,94460.97
2023-05-21T03:32:51.120Z,94455.41
2023-05-21T03:35:17.576Z,94454.00
2023-05-21T03:37:44.054Z,94471.56
2023-05-21T03:40:10.535Z,94465.41
2023-05-21T03:42:36.964Z,94468.91
2023-05-21T03:45:03.442Z,94472.84
2023-05-21T03:47:29.970Z,94468.03
2023-05-21T03:49:56.395Z,94477.19
2023-05-21T03:52:22.840Z,94474.53
2023-05-21T03:54:49.283Z,94476.88
2023-05-21T03:57:15.707Z,94481.56
2023-05-21T03:59:42.185Z,94480.72
2023-05-21T04:02:08.692Z,94488.00
2023-05-21T04:04:35.216Z,94491.00
2023-05-21T04:07:01.665Z,94483.34
2023-05-21T04:09:28.152Z,94485.81
2023-05-21T04:11:54.598Z,94488.50
2023-05-21T04:14:21.064Z,94488.41
2023-05-21T04:16:47.522Z,94495.53
2023-05-21T04:19:14.080Z,94499.78
2023-05-21T04:21:40.556Z,94488.72
2023-05-21T04:24:07.021Z,94506.50
2023-05-21T04:26:33.464Z,94511.09
2023-05-21T04:28:59.919Z,94503.34
2023-05-21T04:31:26.370Z,94505.94
2023-05-21T04:33:52.890Z,94505.47
2023-05-21T04:36:19.328Z,94505.47
2023-05-21T04:38:45.808Z,94509.53
2023-05-21T04:41:12.255Z,94509.28
2023-05-21T04:43:38.675Z,94520.72
2023-05-21T04:46:05.119Z,94521.28
2023-05-21T04:48:31.545Z,94526.50
2023-05-21T04:50:57.967Z,94531.31
2023-05-21T04:53:24.395Z,94526.75
2023-05-21T04:55:50.874Z,94531.66
2023-05-21T04:58:17.300Z,94526.88
2023-05-21T05:00:43.815Z,94536.69
2023-05-21T05:03:10.354Z,94530.75
2023-05-21T05:05:37.200Z,94536.06
2023-05-21T05:08:03.729Z,94534.59
2023-05-21T05:10:30.200Z,94539.59
2023-05-21T05:12:56.686Z,94536.94
2023-05-21T05:15:23.112Z,94539.44
2023-05-21T05:17:49.596Z,94533.38
2023-05-21T05:20:16.061Z,94540.63
2023-05-21T05:22:42.511Z,94542.13
2023-05-21T05:25:08.981Z,94540.44
2023-05-21T05:27:37.702Z,94548.94
2023-05-21T05:30:04.911Z,94549.84
2023-05-21T05:32:31.371Z,94542.19
2023-05-21T05:34:57.883Z,94546.09
2023-05-21T05:37:24.306Z,94543.50
2023-05-21T05:39:50.829Z,94543.41
2023-05-21T05:42:17.454Z,94545.88
2023-05-21T05:44:43.899Z,94548.94
2023-05-21T05:47:10.368Z,94549.97
2023-05-21T05:49:36.808Z,94542.53
2023-05-21T05:52:03.224Z,94548.56
2023-05-21T05:54:29.624Z,94542.03
2023-05-21T05:56:56.117Z,94543.63
2023-05-21T05:59:22.530Z,94550.59
2023-05-21T06:01:48.976Z,94546.06
2023-05-21T06:04:15.429Z,94542.22
2023-05-21T06:06:41.851Z,94547.78
2023-05-21T06:09:08.270Z,94549.94
2023-05-21T06:11:37.448Z,94543.19
2023-05-21T06:14:03.873Z,94546.41
2023-05-21T06:16:30.367Z,94548.56
2023-05-21T06:18:56.986Z,94553.78
2023-05-21T06:21:23.442Z,94563.59
2023-05-21T06:23:49.872Z,94554.34
2023-05-21T06:26:16.327Z,94561.41
2023-05-21T06:28:42.725Z,94547.00
2023-05-21T06:31:09.184Z,94556.91
2023-05-21T06:33:35.752Z,94552.66
2023-05-21T06:36:02.241Z,94555.56
2023-05-21T06:38:28.746Z,94547.81
2023-05-21T06:40:55.190Z,94551.91
2023-05-21T06:43:21.616Z,94552.66
2023-05-21T06:45:48.054Z,94555.03
2023-05-21T06:48:14.566Z,94557.84
2023-05-21T06:50:40.992Z,94553.53
2023-05-21T06:53:07.435Z,94554.53
2023-05-21T06:55:34.004Z,94554.66
2023-05-21T06:58:00.502Z,94558.16
2023-05-21T07:00:27.000Z,94547.69
2023-05-21T07:02:53.610Z,94553.97
2023-05-21T07:05:20.227Z,94556.59
2023-05-21T07:07:46.687Z,94558.03
2023-05-21T07:10:13.180Z,94559.72
2023-05-21T07:12:39.600Z,94557.13
2023-05-21T07:15:06.033Z,94549.75
2023-05-21T07:17:32.524Z,94552.75
2023-05-21T07:19:58.963Z,94550.53
2023-05-21T07:22:27.943Z,94545.84
2023-05-21T07:24:54.832Z,94553.00
2023-05-21T07:27:25.805Z,94551.19
2023-05-21T07:29:52.735Z,94544.56
2023-05-21T07:32:19.170Z,94550.44
2023-05-21T07:34:45.612Z,94551.50
2023-05-21T07:37:12.021Z,94555.22
2023-05-21T07:39:38.449Z,94557.69
2023-05-21T07:42:04.887Z,94546.50
2023-05-21T07:44:31.347Z,94541.47
2023-05-21T07:46:57.793Z,94551.41
2023-05-21T07:49:24.294Z,94551.06
2023-05-21T07:51:50.740Z,94543.31
2023-05-21T07:54:17.245Z,94537.38
2023-05-21T07:56:43.715Z,94536.94
2023-05-21T07:59:11.212Z,94532.44
2023-05-21T08:01:39.168Z,94535.00
2023-05-21T08:04:05.898Z,94534.13
2023-05-21T08:06:32.706Z,94542.28
2023-05-21T08:08:59.134Z,94544.56
2023-05-21T08:11:25.608Z,94539.97
2023-05-21T08:13:52.068Z,94540.09
2023-05-21T08:16:18.553Z,94535.94
2023-05-21T08:18:45.058Z,94535.25
2023-05-21T08:21:11.509Z,94548.88
2023-05-21T08:23:38.015Z,94547.19
2023-05-21T08:26:04.471Z,94536.88
2023-05-21T08:28:30.945Z,94549.44
2023-05-21T08:30:57.396Z,94552.75
2023-05-21T08:33:23.843Z,94552.97
2023-05-21T08:35:50.249Z,94547.41
2023-05-21T08:38:16.723Z,94550.28
2023-05-21T08:40:43.162Z,94550.50
2023-05-21T08:43:09.591Z,94547.69
2023-05-21T08:45:36.213Z,94540.00
2023-05-21T08:48:02.902Z,94542.28
2023-05-21T08:50:29.363Z,94547.16
2023-05-21T08:52:55.804Z,94543.69
2023-05-21T08:55:22.225Z,94537.59
2023-05-21T08:57:48.643Z,94544.09
2023-05-21T09:00:15.083Z,94550.09
2023-05-21T09:02:41.565Z,94548.63
2023-05-21T09:05:08.016Z,94537.56
2023-05-21T09:07:34.466Z,94540.44
2023-05-21T09:10:00.928Z,94542.47
2023-05-21T09:12:27.323Z,94547.34
2023-05-21T09:14:53.765Z,94547.97
2023-05-21T09:17:20.163Z,94558.94
2023-05-21T09:19:46.615Z,94549.97
2023-05-21T09:22:13.060Z,94545.59
2023-05-21T09:24:39.526Z,94547.69
2023-05-21T09:27:05.972Z,94543.53
2023-05-21T09:29:32.393Z,94544.19
2023-05-21T09:31:58.812Z,94559.81
2023-05-21T09:34:25.248Z,94554.91
2023-05-21T09:36:51.675Z,94560.47
2023-05-21T09:39:18.140Z,94554.81
2023-05-21T09:41:44.601Z,94557.06
2023-05-21T09:44:11.016Z,94548.19
2023-05-21T09:46:37.547Z,94547.13
2023-05-21T09:49:04.030Z,94551.09
2023-05-21T09:51:30.434Z,94543.38
2023-05-21T09:53:56.864Z,94552.31
2023-05-21T09:56:23.277Z,94549.44
2023-05-21T09:58:49.741Z,94553.34
2023-05-21T10:01:16.177Z,94553.44
2023-05-21T10:03:42.624Z,94557.31
2023-05-21T10:06:09.076Z,94553.47
2023-05-21T10:08:35.507Z,94556.31
2023-05-21T10:11:01.932Z,94561.84
2023-05-21T10:13:28.395Z,94555.69
2023-05-21T10:15:54.985Z,94557.28
2023-05-21T10:18:21.651Z,94560.72
2023-05-21T10:20:48.090Z,94556.59
2023-05-21T10:23:14.507Z,94557.28
2023-05-21T10:25:42.082Z,94551.34
2023-05-21T10:28:08.532Z,94552.88
2023-05-21T10:30:35.217Z,94552.09
2023-05-21T10:33:02.010Z,94554.69
2023-05-21T10:35:28.550Z,94555.47
2023-05-21T10:37:55.009Z,94543.38
2023-05-21T10:40:21.467Z,94547.13
2023-05-21T10:42:47.888Z,94549.13
2023-05-21T10:45:14.288Z,94542.84
2023-05-21T10:47:40.758Z,94548.63
2023-05-21T10:50:07.207Z,94551.66
2023-05-21T10:52:33.639Z,94544.91
2023-05-21T10:55:00.077Z,94544.75
2023-05-21T10:57:26.546Z,94545.16
2023-05-21T10:59:52.980Z,94537.72
2023-05-21T11:02:19.438Z,94535.72
2023-05-21T11:04:45.932Z,94544.31
2023-05-21T11:07:12.345Z,94548.81
2023-05-21T11:09:38.786Z,94544.56
2023-05-21T11:12:05.248Z,94545.50
2023-05-21T11:14:31.759Z,94550.25
2023-05-21T11:16:58.238Z,94542.34
2023-05-21T11:19:24.786Z,94550.97
2023-05-21T11:21:51.316Z,94547.41
2023-05-21T11:24:17.817Z,94547.53
2023-05-21T11:26:44.237Z,94554.69
2023-05-21T11:29:10.680Z,94547.13
2023-05-21T11:31:37.240Z,94542.22
2023-05-21T11:34:03.680Z,94541.72
2023-05-21T11:36:30.126Z,94544.72
2023-05-21T11:38:56.562Z,94542.44
2023-05-21T11:41:22.982Z,94546.22
2023-05-21T11:43:49.419Z,94544.84
2023-05-21T11:46:15.857Z,94544.41
2023-05-21T11:48:42.371Z,94541.41
2023-05-21T11:51:08.780Z,94545.91
2023-05-21T11:53:35.196Z,94543.53
2023-05-21T11:56:01.727Z,94542.91
2023-05-21T11:58:28.147Z,94545.59
2023-05-21T12:00:54.600Z,94541.72
2023-05-21T12:03:21.171Z,94535.50
2023-05-21T12:05:47.669Z,94547.72
2023-05-21T12:08:14.189Z,94546.78
2023-05-21T12:10:40.632Z,94556.75
2023-05-21T12:13:07.081Z,94546.66
2023-05-21T12:15:33.524Z,94551.59
2023-05-21T12:18:00.080Z,94550.06
2023-05-21T12:20:27.161Z,94544.91
2023-05-21T12:22:53.609Z,94545.25
2023-05-21T12:25:20.254Z,94548.75
2023-05-21T12:27:46.926Z,94542.22
2023-05-21T12:30:13.389Z,94533.00
2023-05-21T12:32:39.879Z,94541.84
2023-05-21T12:35:06.398Z,94534.63
2023-05-21T12:37:32.874Z,94531.00
2023-05-21T12:39:59.298Z,94534.09
2023-05-21T12:42:25.712Z,94530.88
2023-05-21T12:44:52.154Z,94535.13
2023-05-21T12:47:18.579Z,94537.69
2023-05-21T12:49:45.025Z,94533.28
2023-05-21T12:52:11.505Z,94537.41
2023-05-21T12:54:37.955Z,94534.31
2023-05-21T12:57:04.368Z,94537.97
2023-05-21T12:59:30.821Z,94535.34
2023-05-21T13:01:57.294Z,94533.28
2023-05-21T13:04:23.776Z,94544.06
2023-05-21T13:06:50.218Z,94541.94
2023-05-21T13:09:16.675Z,94542.72
2023-05-21T13:11:44.742Z,94543.09
2023-05-21T13:14:11.183Z,94537.09
2023-05-21T13:16:37.600Z,94537.56
2023-05-21T13:19:04.148Z,94539.06
2023-05-21T13:21:30.553Z,94529.06
2023-05-21T13:23:56.950Z,94534.16
2023-05-21T13:26:23.377Z,94532.75
2023-05-21T13:28:49.799Z,94530.56
2023-05-21T13:31:16.293Z,94521.28
2023-05-21T13:33:42.780Z,94525.00
2023-05-21T13:36:09.255Z,94522.09
2023-05-21T13:38:35.730Z,94530.84
2023-05-21T13:41:02.155Z,94534.19
2023-05-21T13:43:28.630Z,94526.50
2023-05-21T13:45:55.060Z,94525.00
2023-05-21T13:48:21.495Z,94531.19
2023-05-21T13:50:47.941Z,94523.72
2023-05-21T13:53:14.358Z,94522.13
2023-05-21T13:55:40.794Z,94520.19
2023-05-21T13:58:07.227Z,94524.00
2023-05-21T14:00:33.694Z,94527.34
2023-05-21T14:03:00.298Z,94523.25
2023-05-21T14:05:26.812Z,94517.56
2023-05-21T14:07:53.242Z,94514.63
2023-05-21T14:10:19.693Z,94518.69
2023-05-21T14:12:46.114Z,94514.06
2023-05-21T14:15:12.533Z,94514.16
2023-05-21T14:17:38.997Z,94505.53
2023-05-21T14:20:05.586Z,94514.88
2023-05-21T14:22:32.049Z,94518.28
2023-05-21T14:24:58.510Z,94511.75
2023-05-21T14:27:24.913Z,94511.81
2023-05-21T14:29:51.416Z,94514.88
2023-05-21T14:32:17.913Z,94512.09
2023-05-21T14:34:44.414Z,94509.41
2023-05-21T14:37:10.836Z,94511.81
2023-05-21T14:39:37.280Z,94515.19
2023-05-21T14:42:03.719Z,94519.63
2023-05-21T14:44:30.165Z,94513.13
2023-05-21T14:46:56.679Z,94511.19
2023-05-21T14:49:23.129Z,94516.66
2023-05-21T14:51:49.573Z,94514.78
2023-05-21T14:54:16.020Z,94510.06
2023-05-21T14:56:42.508Z,94506.25
2023-05-21T14:59:08.945Z,94508.28
2023-05-21T15:01:35.421Z,94510.94
2023-05-21T15:04:02.171Z,94518.09
2023-05-21T15:06:28.822Z,94520.47
2023-05-21T15:08:55.279Z,94512.56
2023-05-21T15:11:21.717Z,94509.47
2023-05-21T15:13:48.145Z,94505.44
2023-05-21T15:16:15.360Z,94506.81
2023-05-21T15:18:43.071Z,94510.53
2023-05-21T15:21:09.528Z,94505.91
2023-05-21T15:23:35.976Z,94514.88
2023-05-21T15:26:02.440Z,94513.63
2023-05-21T15:28:28.891Z,94514.00
2023-05-21T15:30:55.449Z,94509.19
2023-05-21T15:33:21.877Z,94521.25
2023-05-21T15:35:48.532Z,94517.56
2023-05-21T15:38:15.058Z,94523.31
2023-05-21T15:40:41.523Z,94512.94
2023-05-21T15:43:07.945Z,94522.38
2023-05-21T15:45:34.502Z,94524.25
2023-05-21T15:48:01.181Z,94512.72
2023-05-21T15:50:27.705Z,94517.22
2023-05-21T15:52:54.194Z,94516.47
2023-05-21T15:55:20.648Z,94510.00
2023-05-21T15:57:47.086Z,94520.34
2023-05-21T16:00:13.513Z,94518.72
2023-05-21T16:02:39.963Z,94521.94
2023-05-21T16:05:06.446Z,94535.59
2023-05-21T16:07:33.284Z,94528.53
2023-05-21T16:10:00.289Z,94521.09
2023-05-21T16:12:26.770Z,94521.84
2023-05-21T16:14:53.213Z,94524.06
2023-05-21T16:17:19.754Z,94516.06
2023-05-21T16:19:46.326Z,94515.34
2023-05-21T16:22:12.765Z,94523.28
2023-05-21T16:24:39.196Z,94522.63
2023-05-21T16:27:05.678Z,94518.28
2023-05-21T16:29:32.174Z,94526.25
2023-05-21T16:31:58.677Z,94523.25
2023-05-21T16:34:25.152Z,94530.69
2023-05-21T16:36:51.583Z,94525.38
2023-05-21T16:39:18.033Z,94516.44
2023-05-21T16:41:44.475Z,94515.56
2023-05-21T16:44:10.886Z,94518.88
2023-05-21T16:46:37.453Z,94514.34
2023-05-21T16:49:03.943Z,94509.88
2023-05-21T16:51:30.419Z,94521.00
2023-05-21T16:53:56.845Z,94510.19
2023-05-21T16:56:23.314Z,94511.69
2023-05-21T16:58:49.774Z,94516.25
2023-05-21T17:01:16.207Z,94509.88
2023-05-21T17:03:43.491Z,94517.41
2023-05-21T17:06:10.063Z,94519.63
2023-05-21T17:08:36.533Z,94523.69
2023-05-21T17:11:02.962Z,94511.28
2023-05-21T17:13:29.362Z,94515.91
2023-05-21T17:15:55.837Z,94520.25
2023-05-21T17:18:22.316Z,94525.94
2023-05-21T17:20:48.795Z,94529.94
2023-05-21T17:23:15.414Z,94527.03
2023-05-21T17:25:42.084Z,94529.00
2023-05-21T17:28:08.605Z,94534.25
2023-05-21T17:30:35.050Z,94535.19
2023-05-21T17:33:01.636Z,94544.84
2023-05-21T17:35:28.129Z,94542.09
2023-05-21T17:37:54.617Z,94536.78
2023-05-21T17:40:22.159Z,94543.34
2023-05-21T17:42:48.618Z,94538.09
2023-05-21T17:45:15.051Z,94543.53
2023-05-21T17:47:41.546Z,94551.44
2023-05-21T17:50:08.044Z,94550.91
2023-05-21T17:52:34.645Z,94553.88
2023-05-21T17:55:01.135Z,94553.22
2023-05-21T17:57:27.613Z,94560.63
2023-05-21T17:59:54.091Z,94564.91
2023-05-21T18:02:20.570Z,94555.81
2023-05-21T18:04:47.050Z,94566.03
2023-05-21T18:07:13.452Z,94573.81
2023-05-21T18:09:39.911Z,94574.19
2023-05-21T18:12:06.464Z,94570.94
2023-05-21T18:14:32.934Z,94574.91
2023-05-21T18:16:59.633Z,94573.34
2023-05-21T18:19:26.679Z,94580.59
2023-05-21T18:21:53.240Z,94574.84
2023-05-21T18:24:19.910Z,94573.06
2023-05-21T18:26:46.365Z,94570.84
2023-05-21T18:29:13.023Z,94580.00
2023-05-21T18:31:39.544Z,94584.72
2023-05-21T18:34:06.057Z,94579.81
2023-05-21T18:36:32.545Z,94588.56
2023-05-21T18:39:00.232Z,94589.78
2023-05-21T18:41:26.704Z,94590.84
2023-05-21T18:43:54.602Z,94590.47
2023-05-21T18:46:21.164Z,94599.56
2023-05-21T18:48:47.790Z,94599.50
2023-05-21T18:51:14.474Z,94603.78
2023-05-21T18:53:41.025Z,94607.78
2023-05-21T18:56:07.634Z,94616.88
2023-05-21T18:58:34.284Z,94616.69
2023-05-21T19:01:00.762Z,94619.19
2023-05-21T19:03:27.308Z,94624.03
2023-05-21T19:05:55.699Z,94619.47
2023-05-21T19:08:22.470Z,94620.03
2023-05-21T19:10:49.065Z,94624.38
2023-05-21T19:13:15.796Z,94623.16
2023-05-21T19:15:42.347Z,94627.81
2023-05-21T19:18:08.930Z,94617.63
2023-05-21T19:20:35.714Z,94619.84
2023-05-21T19:23:02.568Z,94624.84
2023-05-21T19:25:29.123Z,94625.22
2023-05-21T19:27:55.719Z,94625.22
2023-05-21T19:30:24.369Z,94629.69
2023-05-21T19:32:51.011Z,94634.03
2023-05-21T19:35:17.901Z,94633.94
2023-05-21T19:37:44.554Z,94639.94
2023-05-21T19:40:11.147Z,94643.00
2023-05-21T19:42:37.820Z,94640.22
2023-05-21T19:45:04.475Z,94640.03
2023-05-21T19:47:31.056Z,94636.47
2023-05-21T19:49:58.946Z,94645.81
2023-05-21T19:52:25.638Z,94648.78
2023-05-21T19:54:52.263Z,94658.19
2023-05-21T19:57:19.733Z,94645.25
2023-05-21T19:59:46.222Z,94651.13
2023-05-21T20:02:12.750Z,94655.81
2023-05-21T20:04:39.344Z,94660.59
2023-05-21T20:07:06.277Z,94666.44
2023-05-21T20:09:32.778Z,94676.72
2023-05-21T20:12:05.437Z,94677.53
2023-05-21T20:14:33.678Z,94682.66
2023-05-21T20:17:00.293Z,94686.41
2023-05-21T20:19:26.930Z,94691.34
2023-05-21T20:21:53.528Z,94688.16
2023-05-21T20:24:19.990Z,94689.06
2023-05-21T20:26:46.496Z,94688.16
2023-05-21T20:29:12.990Z,94687.69
2023-05-21T20:31:39.557Z,94692.63
2023-05-21T20:34:06.124Z,94683.34
2023-05-21T20:36:32.626Z,94683.66
2023-05-21T20:39:02.128Z,94679.47
2023-05-21T20:41:28.784Z,94686.94
2023-05-21T20:43:55.196Z,94682.78
2023-05-21T20:46:21.643Z,94693.81
2023-05-21T20:48:48.069Z,94690.38
2023-05-21T20:51:14.554Z,94702.03
2023-05-21T20:53:41.010Z,94696.19
2023-05-21T20:56:07.455Z,94698.16
2023-05-21T20:58:33.903Z,94694.75
2023-05-21T21:01:00.394Z,94696.72
2023-05-21T21:03:26.846Z,94692.41
2023-05-21T21:05:53.323Z,94699.59
2023-05-21T21:08:19.765Z,94697.19
2023-05-21T21:10:46.208Z,94697.38
2023-05-21T21:13:12.663Z,94699.34
2023-05-21T21:15:39.102Z,94700.06
2023-05-21T21:18:05.526Z,94699.63
2023-05-21T21:20:31.946Z,94707.69
2023-05-21T21:22:58.401Z,94709.19
2023-05-21T21:25:24.833Z,94711.75
2023-05-21T21:27:51.388Z,94712.94
2023-05-21T21:30:17.847Z,94718.16
2023-05-21T21:32:44.309Z,94713.69
2023-05-21T21:35:10.806Z,94719.34
2023-05-21T21:37:37.260Z,94718.44
2023-05-21T21:40:03.680Z,94707.13
2023-05-21T21:42:30.116Z,94715.47
2023-05-21T21:44:56.581Z,94720.25
2023-05-21T21:47:23.008Z,94720.25
2023-05-21T21:49:49.463Z,94714.28
2023-05-21T21:52:15.945Z,94723.25
2023-05-21T21:54:42.366Z,94709.97
2023-05-21T21:57:08.875Z,94712.34
2023-05-21T21:59:35.286Z,94708.94
2023-05-21T22:02:01.714Z,94708.94
2023-05-21T22:04:28.177Z,94711.91
2023-05-21T22:06:54.616Z,94710.13
2023-05-21T22:09:21.099Z,94711.75
2023-05-21T22:11:47.509Z,94715.94
2023-05-21T22:14:13.942Z,94719.38
2023-05-21T22:16:40.398Z,94719.38
2023-05-21T22:19:06.873Z,94725.91
2023-05-21T22:21:33.299Z,94722.34
2023-05-21T22:23:59.772Z,94726.06
2023-05-21T22:26:26.197Z,94726.50
2023-05-21T22:28:52.617Z,94725.59
2023-05-21T22:31:19.116Z,94731.97
2023-05-21T22:33:45.643Z,94733.28
2023-05-21T22:36:12.120Z,94743.75
2023-05-21T22:38:38.529Z,94742.16
2023-05-21T22:41:04.933Z,94741.72
2023-05-21T22:43:31.391Z,94745.00
2023-05-21T22:45:57.807Z,94745.50
2023-05-21T22:48:24.287Z,94752.16
2023-05-21T22:50:50.760Z,94745.44
2023-05-21T22:53:17.243Z,94745.72
2023-05-21T22:55:43.672Z,94740.34
2023-05-21T22:58:10.090Z,94745.81
2023-05-21T23:00:36.622Z,94748.63
2023-05-21T23:03:03.227Z,94749.06
2023-05-21T23:05:30.920Z,94748.56
2023-05-21T23:07:57.374Z,94746.75
2023-05-21T23:10:23.779Z,94759.16
2023-05-21T23:12:50.239Z,94751.09
2023-05-21T23:15:16.697Z,94750.66
2023-05-21T23:17:43.137Z,94752.63
2023-05-21T23:20:09.620Z,94755.47
2023-05-21T23:22:36.026Z,94751.44
2023-05-21T23:25:02.537Z,94747.56
2023-05-21T23:27:28.961Z,94738.34
2023-05-21T23:29:55.413Z,94740.28
2023-05-21T23:32:21.815Z,94749.78
2023-05-21T23:34:48.390Z,94748.75
2023-05-21T23:37:14.840Z,94745.34
2023-05-21T23:39:41.237Z,94740.72
2023-05-21T23:42:07.692Z,94747.84
2023-05-21T23:44:34.130Z,94737.69
2023-05-21T23:47:00.538Z,94735.31
2023-05-21T23:49:26.969Z,94742.19
2023-05-21T23:51:53.401Z,94742.47
2023-05-21T23:54:19.855Z,94740.09
2023-05-21T23:56:46.253Z,94733.84
2023-05-21T23:59:12.686Z,94734.72
